createdAt,value
2019-04-27T00:01:27.357Z,993.9
2019-04-27T00:06:27.327Z,993.9
2019-04-27T00:11:33.223Z,993.8
2019-04-27T00:16:33.813Z,993.8
2019-04-27T00:21:32.943Z,993.7
2019-04-27T00:26:33.404Z,993.7
2019-04-27T00:31:33.625Z,993.7
2019-04-27T00:36:33.265Z,993.7
2019-04-27T00:41:33.962Z,993.8
2019-04-27T00:46:33.096Z,993.8
2019-04-27T00:51:33.313Z,993.7
2019-04-27T00:56:33.818Z,993.6
2019-04-27T01:01:33.286Z,993.6
2019-04-27T01:06:33.590Z,993.5
2019-04-27T01:11:33.274Z,993.4
2019-04-27T01:16:32.830Z,993.4
2019-04-27T01:21:32.823Z,993.3
2019-04-27T01:26:32.845Z,993.3
2019-04-27T01:31:32.814Z,993.2
2019-04-27T01:36:32.775Z,993.3
2019-04-27T01:41:32.823Z,993.2
2019-04-27T01:46:32.769Z,993.2
2019-04-27T01:51:32.818Z,993.2
2019-04-27T01:56:32.754Z,993.2
2019-04-27T02:01:32.895Z,993.2
2019-04-27T02:06:32.783Z,993.1
2019-04-27T02:11:32.819Z,993.1
2019-04-27T02:16:36.974Z,993.1
2019-04-27T02:21:32.779Z,993.1
2019-04-27T02:26:32.772Z,993.1
2019-04-27T02:31:32.775Z,993
2019-04-27T02:36:32.749Z,993
2019-04-27T02:41:32.717Z,993
2019-04-27T02:46:32.744Z,992.9
2019-04-27T02:51:32.765Z,993
2019-04-27T02:56:32.728Z,993
2019-04-27T03:01:33.766Z,992.9
2019-04-27T03:06:32.721Z,993
2019-04-27T03:11:34.026Z,992.9
2019-04-27T03:16:32.695Z,992.9
2019-04-27T03:21:33.460Z,992.8
2019-04-27T03:26:33.476Z,992.8
2019-04-27T03:31:33.438Z,992.7
2019-04-27T03:36:34.811Z,992.7
2019-04-27T03:41:33.461Z,992.7
2019-04-27T03:46:33.424Z,992.6
2019-04-27T03:51:36.368Z,992.7
2019-04-27T03:56:34.898Z,992.6
2019-04-27T04:01:34.922Z,992.6
2019-04-27T04:06:34.901Z,992.5
2019-04-27T04:11:36.166Z,992.5
2019-04-27T04:16:34.874Z,992.5
2019-04-27T04:21:34.852Z,992.5
2019-04-27T04:26:34.911Z,992.4
2019-04-27T04:31:36.227Z,992.3
2019-04-27T04:36:34.854Z,992.3
2019-04-27T04:41:34.863Z,992.3
2019-04-27T04:46:34.850Z,992.4
2019-04-27T04:51:34.887Z,992.4
2019-04-27T04:56:34.850Z,992.3
2019-04-27T05:01:34.846Z,992.3
2019-04-27T05:06:34.871Z,992.2
2019-04-27T05:11:39.587Z,992.2
2019-04-27T05:16:39.153Z,992.3
2019-04-27T05:21:39.014Z,992.2
2019-04-27T05:26:39.695Z,992.1
2019-04-27T05:31:39.026Z,992.1
2019-04-27T05:36:41.495Z,992.2
2019-04-27T05:41:41.648Z,992.2
2019-04-27T05:46:39.853Z,992.1
2019-04-27T05:51:40.516Z,992
2019-04-27T05:56:39.661Z,992.1
2019-04-27T06:01:39.617Z,992
2019-04-27T06:06:44.412Z,992.1
2019-04-27T06:11:40.058Z,992
2019-04-27T06:16:39.619Z,992
2019-04-27T06:21:40.194Z,992.1
2019-04-27T06:26:40.025Z,992.1
2019-04-27T06:31:39.800Z,992.1
2019-04-27T06:36:39.636Z,992
2019-04-27T06:41:40.103Z,992
2019-04-27T06:46:40.481Z,992
2019-04-27T06:51:40.077Z,992.1
2019-04-27T06:56:39.564Z,992.1
2019-04-27T07:01:39.609Z,992.2
2019-04-27T07:06:52.403Z,992.2
2019-04-27T07:11:39.647Z,992.2
2019-04-27T07:16:39.587Z,992.2
2019-04-27T07:21:40.036Z,992.2
2019-04-27T07:26:39.561Z,992.1
2019-04-27T07:31:40.180Z,992.2
2019-04-27T07:36:39.590Z,992.2
2019-04-27T07:41:39.546Z,992.1
2019-04-27T07:46:39.504Z,992.1
2019-04-27T07:51:39.554Z,992
2019-04-27T07:56:39.560Z,992
2019-04-27T08:01:39.516Z,991.9
2019-04-27T08:06:39.536Z,991.8
2019-04-27T08:11:39.509Z,991.8
2019-04-27T08:16:39.512Z,991.8
2019-04-27T08:21:44.107Z,991.8
2019-04-27T08:26:39.576Z,991.6
2019-04-27T08:31:39.521Z,991.6
2019-04-27T08:36:39.500Z,991.7
2019-04-27T08:41:39.544Z,991.6
2019-04-27T08:46:39.471Z,991.5
2019-04-27T08:51:41.455Z,991.4
2019-04-27T08:56:39.650Z,991.2
2019-04-27T09:01:39.802Z,991.2
2019-04-27T09:06:40.762Z,991.3
2019-04-27T09:11:39.511Z,991.2
2019-04-27T09:16:39.439Z,991
2019-04-27T09:21:39.560Z,991.1
2019-04-27T09:26:39.470Z,991.4
2019-04-27T09:31:39.515Z,991
2019-04-27T09:36:39.437Z,990.9
2019-04-27T09:41:39.473Z,991.2
2019-04-27T09:46:39.460Z,990.9
2019-04-27T11:07:07.187Z,990.8
2019-04-27T11:12:06.849Z,990.9
2019-04-27T11:17:06.366Z,990.8
2019-04-27T11:22:07.601Z,990.8
2019-04-27T11:27:06.326Z,990.9
2019-04-27T11:32:06.295Z,990.8
2019-04-27T11:37:06.282Z,990.8
2019-04-27T11:42:06.291Z,990.6
2019-04-27T11:47:06.258Z,990.6
2019-04-27T11:52:07.703Z,990.7
2019-04-27T11:57:06.273Z,990.6
2019-04-27T12:02:06.275Z,990.4
2019-04-27T12:07:06.549Z,990.4
2019-04-27T12:12:13.433Z,990.3
2019-04-27T12:17:06.371Z,990.2
2019-04-27T12:22:06.302Z,990.2
2019-04-27T12:27:06.253Z,990.1
2019-04-27T12:32:06.266Z,990
2019-04-27T12:37:07.254Z,990
2019-04-27T12:42:06.292Z,989.8
2019-04-27T12:47:06.354Z,989.7
2019-04-27T12:52:06.220Z,989.7
2019-04-27T12:57:06.253Z,989.6
2019-04-27T13:02:06.332Z,989.7
2019-04-27T13:07:06.192Z,989.5
2019-04-27T13:12:06.287Z,989.5
2019-04-27T13:17:06.341Z,989.4
2019-04-27T13:22:06.266Z,989.4
2019-04-27T13:27:06.481Z,989.2
2019-04-27T13:32:06.176Z,989.1
2019-04-27T13:37:06.199Z,989
2019-04-27T13:42:06.593Z,988.8
2019-04-27T13:47:08.124Z,988.7
2019-04-27T13:52:06.217Z,988.7
2019-04-27T13:57:07.565Z,988.5
2019-04-27T14:02:06.185Z,988.5
2019-04-27T14:07:06.171Z,988.5
2019-04-27T14:12:06.152Z,988.4
2019-04-27T14:17:07.849Z,988.3
2019-04-27T14:22:06.205Z,988.2
2019-04-27T14:27:06.155Z,988.2
2019-04-27T14:32:06.178Z,988.2
2019-04-27T14:37:06.128Z,988.1
2019-04-27T14:42:08.325Z,988.1
2019-04-27T14:47:07.974Z,988.1
2019-04-27T14:52:06.150Z,988
2019-04-27T14:57:06.191Z,988
2019-04-27T15:02:06.127Z,988
2019-04-27T15:07:06.135Z,988
2019-04-27T15:12:06.094Z,987.9
2019-04-27T15:17:06.786Z,987.9
2019-04-27T15:22:06.088Z,987.8
2019-04-27T15:27:06.128Z,987.8
2019-04-27T15:36:08.212Z,987.7
2019-04-27T15:41:08.772Z,987.7
2019-04-27T15:46:08.257Z,987.7
2019-04-27T15:51:14.361Z,987.8
2019-04-27T15:56:08.767Z,987.8
2019-04-27T16:06:51.338Z,987.6
2019-04-27T16:11:57.842Z,987.5
2019-04-27T16:16:51.264Z,987.6
2019-04-27T16:21:54.023Z,987.6
2019-04-27T16:26:55.855Z,987.6
2019-04-27T16:27:49.109Z,987.5
2019-04-27T16:32:59.441Z,987.6
2019-04-27T16:38:00.098Z,987.6
2019-04-27T16:43:00.684Z,987.5
2019-04-27T16:48:01.807Z,987.6
2019-04-27T16:53:01.023Z,987.6
2019-04-27T16:57:59.937Z,987.5
2019-04-27T17:03:02.698Z,987.6
2019-04-27T17:07:59.636Z,987.6
2019-04-27T17:12:59.659Z,987.7
2019-04-27T17:17:59.659Z,987.7
2019-04-27T17:22:59.622Z,987.8
2019-04-27T17:28:03.938Z,987.8
2019-04-27T17:52:59.050Z,988.1
2019-04-27T17:57:58.863Z,988.1
2019-04-27T18:02:57.951Z,988
2019-04-27T18:07:57.953Z,988
2019-04-27T18:12:58.243Z,988
2019-04-27T18:17:58.441Z,988
2019-04-27T18:22:57.975Z,988.1
2019-04-27T18:27:58.260Z,988
2019-04-27T18:32:59.095Z,988
2019-04-27T18:37:58.269Z,988
2019-04-27T18:42:57.382Z,987.9
2019-04-27T18:47:59.222Z,988
2019-04-27T18:52:58.068Z,988
2019-04-27T18:57:59.557Z,987.8
2019-04-27T19:02:58.436Z,987.8
2019-04-27T19:07:57.373Z,987.6
2019-04-27T19:12:58.464Z,987.6
2019-04-27T19:17:58.109Z,987.5
2019-04-27T19:22:57.381Z,987.6
2019-04-27T19:49:51.522Z,987.7
2019-04-27T19:54:51.480Z,987.7
2019-04-27T19:59:51.581Z,987.8
2019-04-27T20:04:51.493Z,987.9
2019-04-27T20:09:51.491Z,988
2019-04-27T20:14:51.475Z,987.8
2019-04-27T20:19:51.641Z,987.8
2019-04-27T20:24:51.486Z,987.8
2019-04-27T20:29:51.463Z,987.8
2019-04-27T20:34:51.498Z,987.8
2019-04-27T20:39:51.644Z,987.7
2019-04-27T21:00:22.146Z,987.9
2019-04-27T21:05:22.219Z,987.9
2019-04-27T21:10:22.136Z,987.9
2019-04-27T21:15:22.131Z,987.9
2019-04-27T21:20:22.156Z,987.9
2019-04-27T21:25:22.135Z,987.9
2019-04-27T21:30:22.152Z,987.9
2019-04-27T21:35:22.122Z,987.8
2019-04-27T21:40:22.111Z,987.9
